Terminal Aerodrome Forecast
Issued by NWS Jackson, MS

Home | Current Version | Previous Version | Text Only | Print | Product List | Glossary On
Versions: 1 2 3 4 5 6 7 8 9 10 11 12
723
FTUS44 KJAN 241740
TAFHBG
TAF
KHBG 241740Z 2418/2518 24004KT P6SM SCT050
     FM250600 VRB03KT P6SM VCSH BKN040
     FM251300 VRB05KT P6SM SCT050=

USA.gov is the U.S. government's official web portal to all federal, state and local government web resources and services.